Time;durP1;ratioP1;P1;durP2;ratioP2;P2;SDS_P1;SDS_P2;PMS_P1;PMS_P2;Temp;Humidity;BMP_temperature;BMP_pressure;BME280_temperature;BME280_humidity;BME280_pressure;Samples;Min_cycle;Max_cycle;Signal;HPM_P1;HPM_P2
2021/11/24 00:01:00;;;;;;;40.95;27.08;;;1.60;99.90;;;;;;5049772;28;20148;-69
2021/11/24 00:03:27;;;;;;;37.63;25.88;;;1.50;99.90;;;;;;5051990;28;20064;-69
2021/11/24 00:05:53;;;;;;;41.28;25.73;;;1.40;99.90;;;;;;5051182;28;20056;-68
2021/11/24 00:08:20;;;;;;;36.42;22.65;;;1.40;99.90;;;;;;5040943;28;20049;-68
2021/11/24 00:10:48;;;;;;;47.28;26.58;;;1.50;99.90;;;;;;5026127;28;20056;-68
2021/11/24 00:13:15;;;;;;;42.83;27.30;;;1.40;99.90;;;;;;5050133;28;20489;-68
2021/11/24 00:15:42;;;;;;;37.03;25.50;;;1.50;99.90;;;;;;5032385;28;20056;-68
2021/11/24 00:18:09;;;;;;;40.10;25.52;;;1.40;99.90;;;;;;5045842;28;20080;-68
2021/11/24 00:20:36;;;;;;;40.60;25.20;;;1.40;99.90;;;;;;5048553;28;20056;-69
2021/11/24 00:23:04;;;;;;;42.88;25.90;;;1.40;99.90;;;;;;5032367;28;20049;-68
2021/11/24 00:25:31;;;;;;;37.10;25.45;;;1.30;99.90;;;;;;5048320;28;20125;-68
2021/11/24 00:27:59;;;;;;;35.42;23.58;;;1.30;99.90;;;;;;5032122;28;20048;-68
2021/11/24 00:30:26;;;;;;;42.08;24.45;;;1.30;99.90;;;;;;5038720;28;20052;-68
2021/11/24 00:32:55;;;;;;;36.33;23.30;;;1.20;99.90;;;;;;5049902;28;20056;-68
2021/11/24 00:35:22;;;;;;;37.67;22.73;;;1.20;99.90;;;;;;5048281;28;20101;-68
2021/11/24 00:37:49;;;;;;;37.03;22.02;;;1.20;99.90;;;;;;5049066;28;20155;-68
2021/11/24 00:40:16;;;;;;;37.97;23.88;;;1.20;99.90;;;;;;5048411;28;20053;-68
2021/11/24 00:42:43;;;;;;;42.40;25.10;;;1.20;99.90;;;;;;5049842;28;20049;-68
2021/11/24 00:45:10;;;;;;;36.78;23.90;;;1.20;99.90;;;;;;5048628;28;20053;-68
2021/11/24 00:47:37;;;;;;;35.47;23.83;;;1.20;99.90;;;;;;5031733;28;20067;-68
2021/11/24 00:50:05;;;;;;;33.30;20.70;;;1.20;99.90;;;;;;5048366;28;20048;-68
2021/11/24 00:52:33;;;;;;;37.80;23.63;;;1.20;99.90;;;;;;5048335;28;20056;-68
2021/11/24 00:55:00;;;;;;;38.70;23.10;;;1.20;99.90;;;;;;5032452;28;20049;-68
2021/11/24 00:57:27;;;;;;;41.35;25.88;;;1.10;99.90;;;;;;5029302;28;20045;-68
2021/11/24 00:59:54;;;;;;;35.20;22.15;;;1.10;99.90;;;;;;5047719;28;20045;-68
2021/11/24 01:02:21;;;;;;;35.05;22.83;;;1.10;99.90;;;;;;5047896;28;20047;-69
2021/11/24 01:04:48;;;;;;;39.67;23.83;;;1.10;99.90;;;;;;5014866;28;20040;-68
2021/11/24 01:07:15;;;;;;;39.50;22.75;;;1.10;99.90;;;;;;5047720;28;20063;-67
2021/11/24 01:09:42;;;;;;;33.30;21.55;;;1.00;99.90;;;;;;5048275;28;20505;-68
2021/11/24 01:12:09;;;;;;;34.88;22.48;;;1.00;99.90;;;;;;5034200;28;20488;-67
2021/11/24 01:14:37;;;;;;;41.55;22.52;;;1.00;99.90;;;;;;5030894;28;20490;-68
2021/11/24 01:17:04;;;;;;;36.50;22.67;;;1.10;99.90;;;;;;5042233;28;20040;-67
2021/11/24 01:19:31;;;;;;;39.38;23.17;;;1.00;99.90;;;;;;5046199;28;20186;-67
2021/11/24 01:21:57;;;;;;;35.35;24.70;;;1.00;99.90;;;;;;5033196;28;20060;-68
2021/11/24 01:24:24;;;;;;;37.35;24.98;;;1.00;99.90;;;;;;5039352;28;20492;-68
2021/11/24 01:26:52;;;;;;;32.28;21.83;;;1.00;99.90;;;;;;5047809;28;20056;-67
2021/11/24 01:29:19;;;;;;;35.13;22.00;;;0.90;99.90;;;;;;5047440;28;20524;-68
2021/11/24 01:31:46;;;;;;;34.97;22.13;;;0.90;99.90;;;;;;5049654;28;20106;-68
2021/11/24 01:34:13;;;;;;;33.97;21.98;;;0.90;99.90;;;;;;5029189;28;20068;-68
2021/11/24 01:36:40;;;;;;;35.25;22.67;;;0.90;99.90;;;;;;5048066;28;20060;-68
2021/11/24 01:39:06;;;;;;;37.25;23.25;;;0.90;99.90;;;;;;5047588;28;20041;-68
2021/11/24 01:41:33;;;;;;;33.58;21.60;;;0.90;99.90;;;;;;5054372;28;20060;-67
2021/11/24 01:44:00;;;;;;;33.38;22.13;;;0.90;99.90;;;;;;5060533;28;20393;-67
2021/11/24 01:46:28;;;;;;;33.45;21.70;;;0.80;99.90;;;;;;5031467;28;20049;-67
2021/11/24 01:48:55;;;;;;;36.00;22.55;;;0.90;99.90;;;;;;5031181;28;20052;-68
2021/11/24 01:51:22;;;;;;;39.78;23.55;;;0.90;99.90;;;;;;5047663;28;20056;-68
2021/11/24 01:53:49;;;;;;;32.72;20.25;;;0.90;99.90;;;;;;5051281;28;20049;-68
2021/11/24 01:56:16;;;;;;;35.60;22.67;;;0.90;99.90;;;;;;5051601;28;20107;-68
2021/11/24 01:58:44;;;;;;;41.17;25.27;;;0.90;99.90;;;;;;5052913;28;20052;-68
2021/11/24 02:01:11;;;;;;;34.10;22.45;;;0.90;99.90;;;;;;5050654;28;20124;-68
2021/11/24 02:03:38;;;;;;;34.78;23.98;;;0.90;99.90;;;;;;5050820;28;20339;-67
2021/11/24 02:06:05;;;;;;;36.58;21.83;;;0.90;99.90;;;;;;5034784;28;20380;-68
2021/11/24 02:08:32;;;;;;;32.35;21.63;;;0.90;99.90;;;;;;5034857;28;20453;-67
2021/11/24 02:10:59;;;;;;;34.17;22.40;;;1.00;99.90;;;;;;5017752;28;20053;-68
2021/11/24 02:13:26;;;;;;;36.97;25.50;;;1.00;99.90;;;;;;5052215;28;20471;-67
2021/11/24 02:15:53;;;;;;;33.92;22.27;;;1.10;99.90;;;;;;5051499;28;20056;-67
2021/11/24 02:18:20;;;;;;;35.05;23.17;;;1.20;99.90;;;;;;5050864;28;20055;-68
2021/11/24 02:20:48;;;;;;;35.42;22.20;;;1.20;99.90;;;;;;5010581;28;20057;-67
2021/11/24 02:23:15;;;;;;;33.13;21.88;;;1.30;99.90;;;;;;5045484;28;20056;-68
2021/11/24 02:25:42;;;;;;;31.85;21.95;;;1.30;99.90;;;;;;5045443;28;20052;-67
2021/11/24 02:28:11;;;;;;;35.58;22.83;;;1.40;99.90;;;;;;5050668;28;20158;-68
2021/11/24 02:30:38;;;;;;;34.55;24.00;;;1.50;99.90;;;;;;5036322;28;20091;-67
2021/11/24 02:33:05;;;;;;;38.97;22.88;;;1.50;99.90;;;;;;5052036;28;20041;-67
2021/11/24 02:35:32;;;;;;;33.80;22.48;;;1.50;99.90;;;;;;5066738;28;20147;-67
2021/11/24 02:38:02;;;;;;;34.10;22.52;;;1.60;99.90;;;;;;5030482;28;20049;-69
2021/11/24 02:40:31;;;;;;;39.13;21.80;;;1.60;99.90;;;;;;5039618;28;20099;-68
2021/11/24 02:42:59;;;;;;;34.60;21.33;;;1.60;99.90;;;;;;5052630;28;20052;-68
2021/11/24 02:45:26;;;;;;;33.80;22.10;;;1.60;99.90;;;;;;5017883;28;20053;-68
2021/11/24 02:47:53;;;;;;;30.52;21.48;;;1.70;99.90;;;;;;5051923;28;20049;-68
2021/11/24 02:50:20;;;;;;;30.30;20.75;;;1.70;99.90;;;;;;5017301;28;20071;-68
2021/11/24 02:52:49;;;;;;;33.00;20.88;;;1.70;99.90;;;;;;5051872;28;20075;-69
2021/11/24 02:55:16;;;;;;;33.30;19.88;;;1.70;99.90;;;;;;5050832;28;20140;-69
2021/11/24 02:57:45;;;;;;;30.92;21.92;;;1.80;99.90;;;;;;5050373;28;20045;-68
2021/11/24 03:00:12;;;;;;;35.85;20.50;;;1.80;99.90;;;;;;5050002;28;20057;-68
2021/11/24 03:02:39;;;;;;;32.97;22.00;;;1.80;99.90;;;;;;5052659;28;20067;-68
2021/11/24 03:05:07;;;;;;;37.45;24.00;;;1.80;99.90;;;;;;5059205;28;20080;-67
2021/11/24 03:07:34;;;;;;;34.20;21.73;;;1.80;99.90;;;;;;5030122;28;20768;-68
2021/11/24 03:10:01;;;;;;;28.63;19.92;;;1.90;99.90;;;;;;5045668;28;20103;-68
2021/11/24 03:12:28;;;;;;;38.63;22.25;;;1.90;99.90;;;;;;5051283;28;20051;-67
2021/11/24 03:14:55;;;;;;;33.13;22.63;;;1.90;99.90;;;;;;5050271;28;20404;-67
2021/11/24 03:17:22;;;;;;;29.42;20.50;;;1.90;99.90;;;;;;5053113;28;20049;-69
2021/11/24 03:19:49;;;;;;;37.15;21.85;;;1.90;99.90;;;;;;5055710;28;20055;-68
2021/11/24 03:22:22;;;;;;;32.00;20.50;;;1.90;99.90;;;;;;5017291;28;20048;-67
2021/11/24 03:24:55;;;;;;;33.75;21.65;;;1.90;99.90;;;;;;5034398;28;20480;-68
2021/11/24 03:27:27;;;;;;;34.53;23.10;;;2.00;99.90;;;;;;5031945;28;20191;-67
2021/11/24 03:29:54;;;;;;;27.77;19.15;;;2.00;99.90;;;;;;5041527;28;20053;-69
2021/11/24 03:32:21;;;;;;;30.25;21.15;;;2.00;99.90;;;;;;5039945;28;20048;-67
2021/11/24 03:34:48;;;;;;;32.55;20.20;;;2.10;99.90;;;;;;5030524;28;20045;-68
2021/11/24 03:37:17;;;;;;;29.95;20.13;;;2.20;99.90;;;;;;5057338;28;20049;-68
2021/11/24 03:39:45;;;;;;;36.17;19.90;;;2.30;99.90;;;;;;5034765;28;20057;-68
2021/11/24 03:42:12;;;;;;;35.25;21.17;;;2.30;99.90;;;;;;5045361;28;20049;-68
2021/11/24 03:44:39;;;;;;;31.20;20.77;;;2.30;99.90;;;;;;5031377;28;20057;-68
2021/11/24 03:47:07;;;;;;;32.83;20.23;;;2.40;99.90;;;;;;5044687;28;20396;-68
2021/11/24 03:49:33;;;;;;;28.63;19.92;;;2.40;99.90;;;;;;5034529;28;20048;-68
2021/11/24 03:52:01;;;;;;;30.20;21.20;;;2.50;99.90;;;;;;5049943;28;20049;-68
2021/11/24 03:54:28;;;;;;;32.15;21.08;;;2.50;99.90;;;;;;5034494;28;20120;-68
2021/11/24 03:56:54;;;;;;;31.25;21.05;;;2.50;99.90;;;;;;5051444;28;20052;-68
2021/11/24 03:59:21;;;;;;;34.90;23.73;;;2.60;99.90;;;;;;5051616;28;20108;-67
2021/11/24 04:01:48;;;;;;;28.70;19.55;;;2.60;99.90;;;;;;5049711;28;20053;-67
2021/11/24 04:04:15;;;;;;;30.42;20.25;;;2.60;99.90;;;;;;5051275;28;20102;-67
2021/11/24 04:06:43;;;;;;;29.40;20.42;;;2.60;99.90;;;;;;5046975;28;20156;-67
2021/11/24 04:09:10;;;;;;;33.20;21.00;;;2.70;99.90;;;;;;5032433;28;20484;-68
2021/11/24 04:11:36;;;;;;;32.10;20.52;;;2.70;99.90;;;;;;5049550;28;20056;-68
2021/11/24 04:14:03;;;;;;;32.25;21.98;;;2.70;99.90;;;;;;5030852;28;20057;-68
2021/11/24 04:16:30;;;;;;;30.23;21.02;;;2.70;99.90;;;;;;5050661;28;20041;-68
2021/11/24 04:19:00;;;;;;;30.65;21.85;;;2.70;99.90;;;;;;5051110;28;20045;-68
2021/11/24 04:21:27;;;;;;;32.45;21.98;;;2.70;99.90;;;;;;5030515;28;20071;-68
2021/11/24 04:23:54;;;;;;;30.38;20.23;;;2.70;99.90;;;;;;5050440;28;20060;-67
2021/11/24 04:26:21;;;;;;;30.65;20.33;;;2.70;99.90;;;;;;5033017;28;20150;-67
2021/11/24 04:28:48;;;;;;;31.88;21.70;;;2.70;99.90;;;;;;5049504;28;20115;-67
2021/11/24 04:31:15;;;;;;;31.73;21.38;;;2.70;99.90;;;;;;5049501;28;20412;-67
2021/11/24 04:33:45;;;;;;;30.38;20.50;;;2.70;99.90;;;;;;5055183;28;20057;-70
2021/11/24 04:36:12;;;;;;;35.40;22.80;;;2.60;99.90;;;;;;5049202;28;20497;-67
2021/11/24 04:38:39;;;;;;;29.70;19.70;;;2.60;99.90;;;;;;5033518;28;21628;-67
2021/11/24 04:41:05;;;;;;;31.70;21.40;;;2.50;99.90;;;;;;5047117;28;20443;-68
2021/11/24 04:43:37;;;;;;;32.83;20.08;;;2.50;99.90;;;;;;5050255;28;20053;-67
2021/11/24 04:46:04;;;;;;;33.33;20.38;;;2.40;99.90;;;;;;5050317;28;20049;-67
2021/11/24 04:48:31;;;;;;;27.17;18.48;;;2.40;99.90;;;;;;5048830;28;20127;-67
2021/11/24 04:50:58;;;;;;;31.05;20.48;;;2.40;99.90;;;;;;5050180;28;20052;-67
2021/11/24 04:53:25;;;;;;;31.92;20.70;;;2.30;99.90;;;;;;5049299;28;20059;-68
2021/11/24 04:55:52;;;;;;;33.63;20.88;;;2.30;99.90;;;;;;5049635;28;20053;-68
2021/11/24 04:58:19;;;;;;;32.20;19.25;;;2.30;99.90;;;;;;5063967;28;20056;-68
2021/11/24 05:00:46;;;;;;;30.65;19.30;;;2.20;99.90;;;;;;5049943;28;20057;-68
2021/11/24 05:03:13;;;;;;;43.50;22.42;;;2.20;99.90;;;;;;5049920;28;20139;-67
2021/11/24 05:05:42;;;;;;;30.70;20.70;;;2.20;99.90;;;;;;5048468;28;20050;-67
2021/11/24 05:08:09;;;;;;;31.00;20.88;;;2.20;99.90;;;;;;5033116;28;20194;-68
2021/11/24 05:10:36;;;;;;;29.83;19.92;;;2.20;99.90;;;;;;5048730;28;20053;-68
2021/11/24 05:13:07;;;;;;;31.95;20.45;;;2.20;99.90;;;;;;5060082;28;20044;-68
2021/11/24 05:15:37;;;;;;;30.83;20.98;;;2.20;99.90;;;;;;5032134;28;20045;-68
2021/11/24 05:18:09;;;;;;;32.28;20.02;;;2.20;99.90;;;;;;5033392;28;20421;-68
2021/11/24 05:20:37;;;;;;;36.45;21.85;;;2.20;99.90;;;;;;5016961;28;20056;-68
2021/11/24 05:23:05;;;;;;;31.63;20.38;;;2.20;99.90;;;;;;5030913;28;20049;-68
2021/11/24 05:25:32;;;;;;;29.75;19.15;;;2.20;99.90;;;;;;5059802;28;20559;-67
2021/11/24 05:28:01;;;;;;;32.63;19.10;;;2.20;99.90;;;;;;5060575;28;20049;-68
2021/11/24 05:30:28;;;;;;;38.63;22.73;;;2.20;99.90;;;;;;5044988;28;20068;-68
2021/11/24 05:32:55;;;;;;;33.50;21.33;;;2.10;99.90;;;;;;5048893;28;20045;-68
2021/11/24 05:35:23;;;;;;;33.33;21.38;;;2.10;99.90;;;;;;5033627;28;20567;-67
2021/11/24 05:37:50;;;;;;;32.72;21.42;;;2.00;99.90;;;;;;5049325;28;20045;-68
2021/11/24 05:40:21;;;;;;;33.67;21.88;;;2.00;99.90;;;;;;5033713;28;20052;-68
2021/11/24 05:42:49;;;;;;;28.30;19.50;;;2.00;99.90;;;;;;5057168;28;20056;-68
2021/11/24 05:45:27;;;;;;;30.98;19.10;;;1.90;99.90;;;;;;5048173;28;20045;-67
2021/11/24 05:47:55;;;;;;;33.13;20.08;;;1.90;99.90;;;;;;5048254;28;20053;-67
2021/11/24 05:50:38;;;;;;;29.38;19.80;;;1.90;99.90;;;;;;5034098;28;20051;-68
2021/11/24 05:53:05;;;;;;;34.75;20.98;;;1.80;99.90;;;;;;5048433;28;20057;-68
2021/11/24 05:55:32;;;;;;;26.17;19.08;;;1.70;99.90;;;;;;5048245;28;20049;-68
2021/11/24 05:57:59;;;;;;;32.50;21.85;;;1.70;99.90;;;;;;5049095;28;20093;-67
2021/11/24 06:00:26;;;;;;;32.83;21.20;;;1.60;99.90;;;;;;5048846;28;20041;-68
2021/11/24 06:02:53;;;;;;;32.45;20.90;;;1.60;99.90;;;;;;5028629;28;20045;-67
2021/11/24 06:05:20;;;;;;;32.00;21.15;;;1.60;99.90;;;;;;5050094;28;20102;-67
2021/11/24 06:07:47;;;;;;;36.75;21.98;;;1.50;99.90;;;;;;5049641;28;20060;-68
2021/11/24 06:10:14;;;;;;;33.65;22.15;;;1.50;99.90;;;;;;5031531;28;20068;-68
2021/11/24 06:12:57;;;;;;;31.52;19.98;;;1.50;99.90;;;;;;5048570;28;20492;-68
2021/11/24 06:15:24;;;;;;;41.33;23.58;;;1.50;99.90;;;;;;5037902;28;20049;-69
2021/11/24 06:17:51;;;;;;;34.60;20.58;;;1.40;99.90;;;;;;5048142;28;20049;-68
2021/11/24 06:20:18;;;;;;;32.10;20.58;;;1.40;99.90;;;;;;5049647;28;20176;-68
2021/11/24 06:22:45;;;;;;;41.50;23.15;;;1.40;99.90;;;;;;5031610;28;20096;-68
2021/11/24 06:25:12;;;;;;;37.13;22.55;;;1.40;99.90;;;;;;5057173;28;20048;-68
2021/11/24 06:27:41;;;;;;;37.67;21.60;;;1.30;99.90;;;;;;5050490;28;20416;-67
2021/11/24 06:30:10;;;;;;;42.47;23.15;;;1.30;99.90;;;;;;5049714;28;20507;-68
2021/11/24 06:32:37;;;;;;;39.83;22.85;;;1.30;99.90;;;;;;5031289;28;20493;-67
2021/11/24 06:35:05;;;;;;;32.08;19.98;;;1.30;99.90;;;;;;5044313;28;20059;-69
2021/11/24 06:37:32;;;;;;;36.10;22.33;;;1.30;99.90;;;;;;5047512;28;20136;-68
2021/11/24 06:40:00;;;;;;;33.05;21.35;;;1.30;99.90;;;;;;5034190;28;20519;-67
2021/11/24 06:42:27;;;;;;;35.17;21.23;;;1.20;99.90;;;;;;5039284;28;20064;-67
2021/11/24 06:44:54;;;;;;;37.35;21.63;;;1.20;99.90;;;;;;5034641;28;20056;-66
2021/11/24 06:47:21;;;;;;;35.60;22.33;;;1.20;99.90;;;;;;5059028;28;20059;-65
2021/11/24 06:49:48;;;;;;;200.60;111.72;;;1.20;99.90;;;;;;5051654;28;20041;-66
2021/11/24 06:52:15;;;;;;;53.05;32.47;;;1.20;99.90;;;;;;5050742;28;20080;-65
2021/11/24 06:54:42;;;;;;;40.92;26.42;;;1.20;99.90;;;;;;5050073;28;20451;-65
2021/11/24 06:57:09;;;;;;;44.38;26.23;;;1.20;99.90;;;;;;5049222;28;20041;-63
2021/11/24 06:59:36;;;;;;;41.63;23.48;;;1.20;99.90;;;;;;5050882;28;20432;-71
2021/11/24 07:02:04;;;;;;;42.75;24.63;;;1.20;99.90;;;;;;5049231;28;20072;-71
2021/11/24 07:04:35;;;;;;;42.42;23.98;;;1.20;99.90;;;;;;5065134;28;20060;-69
2021/11/24 07:07:02;;;;;;;36.97;23.15;;;1.20;99.90;;;;;;5032835;28;20041;-65
2021/11/24 07:09:29;;;;;;;33.45;21.83;;;1.30;99.90;;;;;;5049127;28;20403;-66
2021/11/24 07:11:56;;;;;;;42.63;24.08;;;1.20;99.90;;;;;;5059170;28;20055;-65
2021/11/24 07:14:23;;;;;;;37.50;24.35;;;1.20;99.90;;;;;;5069109;28;20098;-65
2021/11/24 07:16:50;;;;;;;346.48;195.38;;;1.20;99.90;;;;;;5057422;28;20059;-65
2021/11/24 07:19:21;;;;;;;243.18;142.27;;;1.30;99.90;;;;;;5048433;28;20191;-65
2021/11/24 07:21:48;;;;;;;91.20;55.33;;;1.30;99.90;;;;;;5048721;28;20053;-63
2021/11/24 07:24:16;;;;;;;66.25;38.97;;;1.40;99.90;;;;;;5035888;28;20056;-64
2021/11/24 07:26:43;;;;;;;67.57;40.28;;;1.40;99.90;;;;;;5015959;28;20115;-65
2021/11/24 07:29:10;;;;;;;45.92;29.52;;;1.40;99.90;;;;;;5050672;28;20106;-65
2021/11/24 07:31:37;;;;;;;40.28;26.33;;;1.50;99.90;;;;;;5048436;28;20059;-65
2021/11/24 07:34:04;;;;;;;39.20;25.17;;;1.50;99.90;;;;;;5049636;28;20385;-65
2021/11/24 07:36:31;;;;;;;37.85;24.02;;;1.50;99.90;;;;;;5050067;28;20361;-65
2021/11/24 07:38:58;;;;;;;38.42;25.33;;;1.50;99.90;;;;;;5032278;28;20056;-65
2021/11/24 07:41:25;;;;;;;38.75;24.08;;;1.60;99.90;;;;;;5053886;28;20055;-65
2021/11/24 07:43:52;;;;;;;39.67;24.60;;;1.60;99.90;;;;;;5070231;28;20484;-65
2021/11/24 07:46:19;;;;;;;42.80;26.65;;;1.70;99.90;;;;;;5068475;28;20073;-65
2021/11/24 07:48:46;;;;;;;44.13;23.42;;;1.80;99.90;;;;;;5068259;28;20052;-64
2021/11/24 07:51:17;;;;;;;41.78;25.65;;;1.80;99.90;;;;;;5061026;28;20049;-68
2021/11/24 07:53:45;;;;;;;40.10;25.80;;;1.80;99.90;;;;;;5049155;28;20048;-68
2021/11/24 07:56:12;;;;;;;39.42;26.58;;;1.90;99.90;;;;;;5030921;28;20445;-67
2021/11/24 07:58:41;;;;;;;38.58;25.55;;;1.90;99.90;;;;;;5030734;28;20048;-68
2021/11/24 08:01:09;;;;;;;39.55;24.17;;;1.90;99.90;;;;;;5049059;28;20472;-65
2021/11/24 08:03:36;;;;;;;46.05;27.48;;;2.00;99.90;;;;;;5038013;28;20056;-71
2021/11/24 08:06:04;;;;;;;40.35;25.40;;;2.00;99.90;;;;;;5060850;28;20049;-70
2021/11/24 08:08:31;;;;;;;41.45;26.88;;;2.00;99.90;;;;;;5027587;28;20104;-71
2021/11/24 08:10:58;;;;;;;40.70;27.77;;;2.00;99.90;;;;;;5030998;28;20057;-67
2021/11/24 08:13:26;;;;;;;51.78;27.73;;;2.00;99.90;;;;;;5050488;28;20049;-72
2021/11/24 08:15:53;;;;;;;38.58;24.85;;;2.10;99.90;;;;;;5059473;28;20133;-72
2021/11/24 08:18:21;;;;;;;42.63;26.63;;;2.20;99.90;;;;;;5027543;28;20060;-72
2021/11/24 08:20:49;;;;;;;51.70;27.95;;;2.20;99.90;;;;;;5031930;28;20500;-72
2021/11/24 08:23:17;;;;;;;38.47;23.77;;;2.20;99.90;;;;;;5028539;28;20049;-71
2021/11/24 08:25:44;;;;;;;42.42;27.38;;;2.20;99.90;;;;;;5027670;28;20515;-73
2021/11/24 08:28:11;;;;;;;43.83;27.15;;;2.20;99.90;;;;;;5049224;28;20056;-75
2021/11/24 08:30:38;;;;;;;43.15;25.42;;;2.30;99.90;;;;;;5031364;28;20431;-71
2021/11/24 08:33:05;;;;;;;43.55;25.25;;;2.30;99.90;;;;;;5048187;28;20044;-68
2021/11/24 08:35:32;;;;;;;38.03;24.58;;;2.40;99.90;;;;;;5048921;28;20045;-76
2021/11/24 08:37:59;;;;;;;49.67;28.23;;;2.40;99.90;;;;;;5030966;28;20114;-72
2021/11/24 08:40:26;;;;;;;140.93;83.25;;;2.40;99.90;;;;;;5048778;28;20056;-58
2021/11/24 08:42:53;;;;;;;86.65;52.20;;;2.50;99.90;;;;;;5047023;28;20045;-72
2021/11/24 08:45:20;;;;;;;48.72;30.85;;;2.60;99.90;;;;;;5048197;28;20052;-71
2021/11/24 08:47:49;;;;;;;47.17;28.58;;;2.60;99.90;;;;;;5048700;28;20053;-69
2021/11/24 08:50:16;;;;;;;47.45;28.98;;;2.70;99.90;;;;;;5048767;28;20079;-75
2021/11/24 08:52:43;;;;;;;43.50;26.92;;;2.70;99.90;;;;;;5050149;28;20056;-71
2021/11/24 08:55:10;;;;;;;47.42;28.00;;;2.80;99.90;;;;;;5048858;28;20045;-76
2021/11/24 08:57:38;;;;;;;47.55;28.40;;;2.90;99.90;;;;;;5062068;28;20488;-76
2021/11/24 09:00:05;;;;;;;43.55;27.55;;;2.90;99.90;;;;;;5048718;28;20480;-65
2021/11/24 09:02:32;;;;;;;77.28;44.47;;;3.10;99.90;;;;;;5025228;28;20056;-68
2021/11/24 09:05:00;;;;;;;52.17;33.92;;;3.20;99.90;;;;;;5029344;28;20053;-66
2021/11/24 09:07:28;;;;;;;51.15;28.25;;;3.30;99.90;;;;;;5049818;28;20500;-66
2021/11/24 09:09:55;;;;;;;41.08;25.30;;;3.40;99.90;;;;;;5050016;28;20064;-69
2021/11/24 09:12:22;;;;;;;39.92;25.13;;;3.50;99.90;;;;;;5047704;28;20180;-67
2021/11/24 09:14:49;;;;;;;36.33;23.73;;;3.60;99.90;;;;;;5048927;28;20147;-66
2021/11/24 09:17:16;;;;;;;40.88;26.52;;;3.60;99.90;;;;;;5050187;28;20045;-65
2021/11/24 09:19:45;;;;;;;41.45;23.85;;;3.70;99.90;;;;;;5049347;28;20408;-63
2021/11/24 09:22:32;;;;;;;37.83;23.95;;;3.80;99.90;;;;;;5049841;28;20550;-63
2021/11/24 09:25:00;;;;;;;38.03;25.20;;;3.90;99.90;;;;;;5048602;28;20068;-63
2021/11/24 09:27:31;;;;;;;44.60;28.00;;;4.00;99.90;;;;;;5050613;28;20057;-62
2021/11/24 09:29:59;;;;;;;43.08;25.88;;;4.00;99.90;;;;;;5050171;28;20094;-65
2021/11/24 09:32:26;;;;;;;40.63;26.73;;;4.10;99.90;;;;;;5047473;28;20447;-63
2021/11/24 09:34:53;;;;;;;40.42;25.30;;;4.10;99.90;;;;;;5032630;28;20377;-64
2021/11/24 09:37:20;;;;;;;42.80;26.08;;;4.20;99.90;;;;;;5050661;28;20412;-67
2021/11/24 09:39:47;;;;;;;41.70;26.70;;;4.30;99.90;;;;;;5048695;28;20132;-64
2021/11/24 09:42:15;;;;;;;45.10;26.13;;;4.40;99.90;;;;;;5062274;28;20052;-63
2021/11/24 09:44:45;;;;;;;39.38;26.85;;;4.40;99.90;;;;;;5069253;28;20071;-64
2021/11/24 09:47:12;;;;;;;42.60;27.92;;;4.50;99.90;;;;;;5068741;28;20071;-64
2021/11/24 09:49:39;;;;;;;47.40;29.42;;;4.50;99.90;;;;;;5069060;28;20060;-64
2021/11/24 09:52:18;;;;;;;43.08;29.10;;;4.60;99.90;;;;;;5070192;28;20488;-64
2021/11/24 09:54:48;;;;;;;49.40;28.13;;;4.70;99.90;;;;;;5068848;28;20048;-64
2021/11/24 09:57:19;;;;;;;39.20;26.35;;;4.70;99.90;;;;;;5068818;28;20049;-64
2021/11/24 09:59:46;;;;;;;38.78;25.80;;;4.80;99.90;;;;;;5068758;28;20048;-64
2021/11/24 10:02:13;;;;;;;45.15;27.48;;;4.90;99.90;;;;;;5069732;28;20097;-63
2021/11/24 10:04:44;;;;;;;46.60;27.55;;;5.00;99.90;;;;;;5057558;28;20045;-63
2021/11/24 10:07:15;;;;;;;39.88;25.95;;;5.10;99.90;;;;;;5049053;28;20048;-63
2021/11/24 10:09:42;;;;;;;47.47;29.60;;;5.20;99.90;;;;;;5048985;28;20060;-67
2021/11/24 10:12:09;;;;;;;43.33;29.02;;;5.30;99.90;;;;;;5076575;28;20041;-64
2021/11/24 10:14:51;;;;;;;43.60;28.27;;;5.40;99.90;;;;;;5072311;28;20146;-64
2021/11/24 10:24:08;;;;;;;41.53;27.30;;;5.80;99.90;;;;;;5036124;28;20073;-66
2021/11/24 10:26:35;;;;;;;;;;;6.00;99.90;;;;;;5030862;28;20049;-67
2021/11/24 10:29:07;;;;;;;42.17;25.30;;;6.10;99.90;;;;;;5051864;28;19925;-65
2021/11/24 10:31:37;;;;;;;40.53;26.50;;;6.10;99.90;;;;;;5053221;28;20122;-64
2021/11/24 10:34:20;;;;;;;36.17;25.45;;;6.30;99.90;;;;;;5052248;28;20113;-64
2021/11/24 10:37:22;;;;;;;38.58;25.08;;;6.40;99.90;;;;;;5033935;28;20045;-64
2021/11/24 10:39:55;;;;;;;40.50;27.02;;;6.50;99.90;;;;;;5044613;28;20075;-64
2021/11/24 10:42:25;;;;;;;37.78;26.23;;;6.60;99.90;;;;;;5066167;28;20097;-65
2021/11/24 10:44:56;;;;;;;33.80;24.13;;;6.70;99.90;;;;;;5055198;28;20065;-64
2021/11/24 10:47:24;;;;;;;37.50;24.10;;;6.70;99.90;;;;;;5035556;28;20473;-64
2021/11/24 10:49:53;;;;;;;37.33;25.60;;;6.80;99.90;;;;;;5052391;28;20053;-64
2021/11/24 10:52:31;;;;;;;34.83;24.48;;;6.90;99.90;;;;;;5053319;28;20049;-65
2021/11/24 10:55:06;;;;;;;38.20;23.58;;;7.00;99.90;;;;;;5052673;28;20049;-64
2021/11/24 10:57:34;;;;;;;33.40;23.85;;;7.00;99.90;;;;;;5051783;28;20097;-64
2021/11/24 11:00:05;;;;;;;36.65;24.55;;;7.10;99.90;;;;;;5052963;28;20045;-65
2021/11/24 11:02:34;;;;;;;36.08;24.33;;;7.20;99.90;;;;;;5052037;28;20061;-67
2021/11/24 11:05:11;;;;;;;37.65;24.40;;;7.30;99.90;;;;;;5052279;28;20095;-68
2021/11/24 11:07:48;;;;;;;34.05;23.88;;;7.40;99.90;;;;;;5053149;28;20044;-64
2021/11/24 11:10:18;;;;;;;35.15;24.27;;;7.40;99.90;;;;;;5051978;28;20045;-65
2021/11/24 11:12:46;;;;;;;38.15;25.88;;;7.40;99.90;;;;;;5054036;28;20057;-65
2021/11/24 11:15:20;;;;;;;39.25;25.80;;;7.50;99.90;;;;;;5066513;28;20041;-65
2021/11/24 11:17:58;;;;;;;38.50;25.98;;;7.50;99.90;;;;;;5051336;28;20542;-64
2021/11/24 11:20:31;;;;;;;35.78;23.60;;;7.60;99.90;;;;;;5052346;28;20097;-65
2021/11/24 11:23:05;;;;;;;36.53;23.52;;;7.60;99.90;;;;;;5051562;28;20053;-64
2021/11/24 11:25:32;;;;;;;35.08;24.40;;;7.70;99.90;;;;;;5051102;28;20045;-64
2021/11/24 11:28:00;;;;;;;30.52;21.73;;;7.70;99.90;;;;;;5052463;28;20052;-64
2021/11/24 11:30:28;;;;;;;33.58;22.40;;;7.80;99.90;;;;;;5018690;28;20057;-65
2021/11/24 11:32:55;;;;;;;34.03;25.30;;;7.80;99.90;;;;;;5034573;28;20465;-65
2021/11/24 11:35:23;;;;;;;38.85;25.55;;;7.80;99.90;;;;;;5049780;28;20060;-65
2021/11/24 11:38:07;;;;;;;33.13;22.77;;;7.90;99.90;;;;;;5051739;28;20092;-65
2021/11/24 11:40:36;;;;;;;35.40;23.80;;;7.90;99.90;;;;;;5072166;28;20500;-64
2021/11/24 11:43:06;;;;;;;37.75;25.45;;;7.90;99.90;;;;;;5054726;28;20114;-66
2021/11/24 11:45:54;;;;;;;30.98;22.98;;;7.90;99.90;;;;;;5070822;28;20051;-63
2021/11/24 11:48:37;;;;;;;37.28;25.15;;;7.90;99.90;;;;;;5071338;28;20435;-66
2021/11/24 11:51:05;;;;;;;34.20;23.85;;;7.90;99.90;;;;;;5062375;28;20037;-66
2021/11/24 11:53:45;;;;;;;39.65;26.08;;;8.00;99.90;;;;;;5050299;28;20049;-66
2021/11/24 11:56:17;;;;;;;50.92;34.10;;;8.10;99.90;;;;;;5052019;28;20053;-67
2021/11/24 11:59:02;;;;;;;43.67;30.30;;;8.10;99.90;;;;;;5051539;28;20057;-67
2021/11/24 12:01:41;;;;;;;32.22;23.05;;;8.10;99.90;;;;;;5050900;28;20151;-67
2021/11/24 12:04:21;;;;;;;33.63;23.38;;;8.10;99.90;;;;;;5052816;28;20060;-71
2021/11/24 12:06:53;;;;;;;33.30;23.98;;;8.10;99.90;;;;;;5051489;28;20059;-69
2021/11/24 12:09:47;;;;;;;35.28;23.42;;;8.10;99.90;;;;;;5051861;28;20102;-71
2021/11/24 12:12:29;;;;;;;32.47;23.38;;;8.20;99.90;;;;;;5050268;28;20546;-68
2021/11/24 12:15:02;;;;;;;32.72;21.98;;;8.20;99.90;;;;;;5023894;28;20037;-70
2021/11/24 12:17:50;;;;;;;33.45;24.17;;;8.20;99.90;;;;;;5050738;28;20472;-64
2021/11/24 12:20:19;;;;;;;36.80;24.95;;;8.10;99.90;;;;;;5049099;28;20044;-72
2021/11/24 12:25:29;;;;;;;35.30;23.92;;;8.20;99.90;;;;;;5040206;28;20124;-67
2021/11/24 12:28:02;;;;;;;38.17;25.98;;;8.20;99.90;;;;;;5050308;28;20049;-69
2021/11/24 12:30:48;;;;;;;35.22;26.05;;;8.20;99.90;;;;;;5049470;28;20045;-67
2021/11/24 12:33:36;;;;;;;40.70;27.48;;;8.20;99.90;;;;;;5050994;28;20049;-68
2021/11/24 12:36:09;;;;;;;34.38;24.40;;;8.20;99.90;;;;;;5030804;28;20060;-67
2021/11/24 12:38:40;;;;;;;40.72;26.90;;;8.20;99.90;;;;;;5070099;28;20056;-66
2021/11/24 12:41:29;;;;;;;38.72;26.73;;;8.20;99.90;;;;;;5063575;28;20048;-66
2021/11/24 12:44:00;;;;;;;35.90;26.60;;;8.20;99.90;;;;;;5054281;28;20044;-66
2021/11/24 12:46:36;;;;;;;40.13;26.60;;;8.20;99.90;;;;;;5053274;28;20106;-68
2021/11/24 12:49:15;;;;;;;36.97;27.58;;;8.30;99.90;;;;;;5051318;28;20056;-67
2021/11/24 12:51:47;;;;;;;40.17;28.10;;;8.30;99.90;;;;;;5050490;28;20414;-67
2021/11/24 12:54:21;;;;;;;43.17;26.95;;;8.30;99.90;;;;;;5049619;28;20052;-66
2021/11/24 12:56:51;;;;;;;41.53;27.63;;;8.30;99.90;;;;;;5049250;28;20045;-68